Time;durP1;ratioP1;P1;durP2;ratioP2;P2;SDS_P1;SDS_P2;PMS_P1;PMS_P2;Temp;Humidity;BMP_temperature;BMP_pressure;BME280_temperature;BME280_humidity;BME280_pressure;Samples;Min_cycle;Max_cycle;Signal;HPM_P1;HPM_P2
2022/03/08 00:02:17;;;;;;;;;37.33;36.00;;;;;3.74;44.31;101110.84;5058849;28;45437;-81
2022/03/08 00:04:43;;;;;;;;;47.67;38.33;;;;;3.82;44.63;101125.97;5063152;28;45523;-87
2022/03/08 00:07:08;;;;;;;;;44.00;36.33;;;;;3.72;44.10;101110.75;5082374;28;45496;-84
2022/03/08 00:09:34;;;;;;;;;48.33;40.33;;;;;3.79;44.23;101109.28;5069460;28;46652;-76
2022/03/08 00:11:59;;;;;;;;;48.33;43.00;;;;;3.72;44.12;101108.13;5071545;28;45578;-78
2022/03/08 00:14:25;;;;;;;;;41.67;40.33;;;;;3.82;44.87;101118.13;5081690;28;45262;-83
2022/03/08 00:16:50;;;;;;;;;45.33;35.00;;;;;3.71;44.92;101106.38;5063553;28;45453;-79
2022/03/08 00:19:16;;;;;;;;;55.33;43.00;;;;;3.69;45.17;101113.25;5070569;28;45986;-80
2022/03/08 00:21:41;;;;;;;;;46.00;41.00;;;;;3.74;44.65;101116.06;5058796;28;45511;-77
2022/03/08 00:24:08;;;;;;;;;47.67;42.33;;;;;3.59;44.83;101090.25;5065711;28;45423;-77
2022/03/08 00:26:34;;;;;;;;;43.00;39.00;;;;;3.75;44.80;101118.72;5074324;28;45863;-83
2022/03/08 00:28:59;;;;;;;;;46.67;43.33;;;;;3.63;45.08;101107.75;5058142;28;46091;-77
2022/03/08 00:31:25;;;;;;;;;46.33;34.00;;;;;3.69;44.92;101118.44;5058412;28;45484;-77
2022/03/08 00:33:50;;;;;;;;;42.67;38.00;;;;;3.68;44.76;101114.97;5058615;28;45498;-76
2022/03/08 00:36:25;;;;;;;;;42.33;32.00;;;;;3.62;44.96;101103.38;5071533;28;45226;-78
2022/03/08 00:38:50;;;;;;;;;46.33;44.00;;;;;3.58;45.52;101112.81;5044329;28;47012;-77
2022/03/08 00:41:16;;;;;;;;;49.33;39.33;;;;;3.58;45.18;101111.91;5058509;28;45490;-79
2022/03/08 00:43:47;;;;;;;;;36.33;27.00;;;;;3.60;45.23;101118.97;5067208;28;45403;-82
2022/03/08 00:46:20;;;;;;;;;48.00;45.00;;;;;3.50;45.69;101110.69;5060784;28;45325;-80
2022/03/08 00:48:52;;;;;;;;;42.00;40.00;;;;;3.58;45.30;101127.53;5040501;28;47856;-80
2022/03/08 00:51:24;;;;;;;;;42.67;37.00;;;;;3.36;45.03;101082.38;5049672;28;45496;-76
2022/03/08 00:53:50;;;;;;;;;45.67;40.67;;;;;3.53;45.42;101126.44;5079526;28;45242;-75
2022/03/08 00:56:15;;;;;;;;;52.33;43.33;;;;;2.84;45.50;101011.59;5069235;28;45456;-78
2022/03/08 00:58:41;;;;;;;;;48.00;40.67;;;;;3.37;45.44;101091.97;5065208;28;46209;-80
2022/03/08 01:01:07;;;;;;;;;50.33;41.00;;;;;3.31;45.73;101081.28;5062149;28;45398;-84
2022/03/08 01:03:33;;;;;;;;;50.00;41.33;;;;;3.32;45.89;101092.59;5061172;28;45335;-83
2022/03/08 01:05:58;;;;;;;;;50.00;41.00;;;;;3.44;45.48;101116.53;5062047;28;45373;-84
2022/03/08 01:08:24;;;;;;;;;47.67;42.33;;;;;3.40;46.14;101104.22;5078429;28;45484;-84
2022/03/08 01:10:49;;;;;;;;;46.67;43.00;;;;;3.11;46.15;101057.03;5075433;28;45255;-78
2022/03/08 01:13:15;;;;;;;;;49.33;41.00;;;;;3.27;45.90;101089.81;5079869;28;45547;-83
2022/03/08 01:15:40;;;;;;;;;43.67;39.67;;;;;3.37;46.42;101109.31;5080716;28;45396;-82
2022/03/08 01:18:06;;;;;;;;;51.33;42.67;;;;;2.96;45.87;101037.25;5079814;28;47380;-83
2022/03/08 01:20:31;;;;;;;;;44.67;39.67;;;;;3.10;46.46;101073.47;5083161;28;45321;-85
2022/03/08 01:22:57;;;;;;;;;42.00;41.00;;;;;3.14;46.11;101080.56;5082550;28;45437;-81
2022/03/08 01:25:23;;;;;;;;;51.33;41.00;;;;;3.21;46.17;101088.66;5064229;28;45306;-79
2022/03/08 01:27:49;;;;;;;;;44.67;34.00;;;;;3.20;46.10;101077.34;5061220;28;47267;-81
2022/03/08 01:30:17;;;;;;;;;49.67;43.33;;;;;3.23;45.70;101087.00;5073881;28;45439;-80
2022/03/08 01:32:43;;;;;;;;;44.67;38.33;;;;;3.29;46.21;101098.56;5058296;28;45426;-78
2022/03/08 01:35:09;;;;;;;;;50.00;42.33;;;;;3.23;45.93;101087.88;5059359;28;45484;-80
2022/03/08 01:37:35;;;;;;;;;39.67;34.67;;;;;3.08;46.50;101066.44;5059569;28;45414;-84
2022/03/08 01:40:02;;;;;;;;;51.67;44.00;;;;;3.26;46.61;101097.56;5067777;28;45353;-81
2022/03/08 01:42:27;;;;;;;;;37.33;34.33;;;;;3.13;46.82;101077.91;5059566;28;45480;-87
2022/03/08 01:44:53;;;;;;;;;50.33;42.33;;;;;3.22;46.54;101096.50;5077765;28;45463;-85
2022/03/08 01:47:22;;;;;;;;;39.33;35.00;;;;;3.21;46.56;101099.94;5080173;28;46911;-84
2022/03/08 01:49:49;;;;;;;;;42.33;37.33;;;;;3.18;46.57;101086.81;5076412;28;45497;-78
2022/03/08 01:52:16;;;;;;;;;48.00;44.00;;;;;3.17;46.50;101085.03;5076949;28;45341;-83
2022/03/08 01:54:43;;;;;;;;;48.33;41.00;;;;;3.17;46.33;101085.03;5055839;28;45532;-85
2022/03/08 01:57:08;;;;;;;;;49.33;43.00;;;;;3.15;46.78;101087.53;5072458;28;46533;-86
2022/03/08 01:59:34;;;;;;;;;42.33;41.33;;;;;3.13;46.63;101085.72;5057885;28;45424;-79
2022/03/08 02:02:00;;;;;;;;;45.00;41.00;;;;;3.10;46.26;101085.59;5057155;28;45384;-77
2022/03/08 02:04:26;;;;;;;;;48.33;40.33;;;;;2.96;46.71;101060.66;5039108;28;45823;-76
2022/03/08 02:06:51;;;;;;;;;40.00;37.00;;;;;3.11;46.48;101084.75;5057200;28;47172;-80
2022/03/08 02:09:16;;;;;;;;;54.00;43.00;;;;;3.09;46.74;101089.91;5062080;28;45383;-75
2022/03/08 02:11:43;;;;;;;;;47.33;40.67;;;;;3.07;47.33;101090.66;5072124;28;45334;-78
2022/03/08 02:14:08;;;;;;;;;45.33;35.00;;;;;3.05;46.88;101085.38;5069438;28;45496;-77
2022/03/08 02:16:34;;;;;;;;;47.67;40.67;;;;;3.07;46.76;101082.84;5055474;28;47923;-77
2022/03/08 02:18:59;;;;;;;;;39.67;38.33;;;;;2.99;47.40;101071.22;5055942;28;45488;-77
2022/03/08 02:21:26;;;;;;;;;48.00;42.33;;;;;3.05;46.60;101072.38;5057771;28;45662;-79
2022/03/08 02:23:52;;;;;;;;;51.67;45.00;;;;;3.03;46.89;101068.81;5056731;28;45391;-80
2022/03/08 02:26:21;;;;;;;;;53.33;44.00;;;;;3.04;47.56;101069.69;5056311;28;46408;-81
2022/03/08 02:28:47;;;;;;;;;43.00;40.67;;;;;2.92;47.45;101048.38;5058479;28;45462;-86
2022/03/08 02:31:12;;;;;;;;;41.33;34.00;;;;;3.01;46.68;101059.16;5074898;28;45339;-87
2022/03/08 02:33:38;;;;;;;;;39.67;34.67;;;;;3.00;47.02;101058.28;5073017;28;45553;-77
2022/03/08 02:36:06;;;;;;;;;41.00;33.33;;;;;3.00;46.68;101063.50;5066075;28;46946;-79
2022/03/08 02:38:31;;;;;;;;;47.33;43.00;;;;;2.96;47.39;101050.25;5056647;28;45288;-78
2022/03/08 02:40:57;;;;;;;;;39.33;37.00;;;;;2.95;47.17;101054.59;5065914;28;45383;-79
2022/03/08 02:43:22;;;;;;;;;51.67;43.00;;;;;2.96;47.23;101056.34;5059173;28;45405;-77
2022/03/08 02:45:48;;;;;;;;;47.67;36.67;;;;;2.96;47.35;101053.75;5073657;28;45997;-78
2022/03/08 02:48:13;;;;;;;;;47.00;41.67;;;;;2.99;47.16;101066.03;5058429;28;45485;-78
2022/03/08 02:50:39;;;;;;;;;44.67;41.33;;;;;2.95;46.69;101046.78;5056561;28;45425;-83
2022/03/08 02:53:04;;;;;;;;;48.00;40.67;;;;;2.92;47.03;101045.78;5057694;28;45425;-81
2022/03/08 02:55:33;;;;;;;;;53.33;44.67;;;;;2.85;47.40;101040.28;5056414;28;46165;-82
2022/03/08 02:57:59;;;;;;;;;38.33;38.00;;;;;2.92;47.47;101045.78;5056186;28;45502;-79
2022/03/08 03:00:27;;;;;;;;;48.67;39.67;;;;;2.92;47.23;101046.66;5056771;28;45500;-81
2022/03/08 03:02:53;;;;;;;;;44.67;38.33;;;;;2.85;47.31;101019.47;5057348;28;45390;-84
2022/03/08 03:05:19;;;;;;;;;50.67;40.67;;;;;2.96;47.14;101032.94;5056600;28;46714;-85
2022/03/08 03:07:44;;;;;;;;;44.00;40.67;;;;;2.96;47.05;101029.44;5059531;28;45545;-81
2022/03/08 03:10:13;;;;;;;;;47.33;42.67;;;;;2.97;47.43;101032.09;5061362;28;45273;-80
2022/03/08 03:12:39;;;;;;;;;43.67;40.00;;;;;2.98;47.83;101038.19;5061207;28;45593;-78
2022/03/08 03:15:07;;;;;;;;;35.00;30.33;;;;;2.96;46.88;101029.44;5057880;28;46161;-80
2022/03/08 03:17:32;;;;;;;;;47.67;37.00;;;;;2.71;47.03;100981.59;5080869;28;45432;-80
2022/03/08 03:19:58;;;;;;;;;40.00;40.00;;;;;2.93;47.57;101029.31;5083633;28;45402;-76
2022/03/08 03:22:23;;;;;;;;;48.67;41.00;;;;;2.86;47.17;101015.16;5057578;28;45216;-79
2022/03/08 03:24:49;;;;;;;;;43.67;40.00;;;;;2.89;47.83;101017.03;5061764;28;46213;-80
2022/03/08 03:27:14;;;;;;;;;48.33;38.33;;;;;2.90;47.45;101024.00;5061309;28;45154;-80
2022/03/08 03:29:40;;;;;;;;;48.33;42.67;;;;;2.91;48.01;101026.66;5077027;28;45243;-81
2022/03/08 03:32:06;;;;;;;;;48.33;40.67;;;;;2.89;47.52;101020.50;5079924;28;45180;-78
2022/03/08 03:34:31;;;;;;;;;45.67;42.33;;;;;2.92;47.59;101019.75;5062413;28;46653;-78
2022/03/08 03:36:57;;;;;;;;;45.33;43.00;;;;;2.81;47.60;101004.56;5079778;28;45254;-78
2022/03/08 03:39:22;;;;;;;;;44.67;43.00;;;;;2.87;48.11;101022.13;5079813;28;45427;-79
2022/03/08 03:41:47;;;;;;;;;49.00;43.00;;;;;2.92;47.55;101019.75;5079815;28;45366;-83
2022/03/08 03:44:13;;;;;;;;;55.33;43.00;;;;;2.85;47.88;101001.25;5077050;28;46366;-78
2022/03/08 03:46:38;;;;;;;;;47.67;44.00;;;;;2.77;47.67;100993.94;5077453;28;45478;-78
2022/03/08 03:49:04;;;;;;;;;49.33;41.67;;;;;2.85;48.32;101014.28;5062456;28;45433;-82
2022/03/08 03:51:29;;;;;;;;;44.67;41.33;;;;;2.83;48.31;101008.13;5059293;28;45359;-78
2022/03/08 03:53:55;;;;;;;;;52.00;40.67;;;;;2.85;48.18;101010.78;5059106;28;45498;-77
2022/03/08 03:56:20;;;;;;;;;43.33;39.33;;;;;2.72;48.34;100985.09;5065891;28;45390;-77
2022/03/08 03:58:46;;;;;;;;;42.67;38.33;;;;;2.81;47.64;101007.16;5065746;28;45406;-77
2022/03/08 04:01:11;;;;;;;;;45.67;42.00;;;;;2.85;47.84;101013.38;5061303;28;45519;-81
2022/03/08 04:03:37;;;;;;;;;43.00;35.67;;;;;2.72;47.98;100993.78;5058627;28;45910;-81
2022/03/08 04:06:02;;;;;;;;;49.67;42.33;;;;;2.83;48.24;101015.91;5058260;28;45388;-78
2022/03/08 04:08:28;;;;;;;;;48.33;41.33;;;;;2.80;48.02;101020.13;5060465;28;45359;-85
2022/03/08 04:10:53;;;;;;;;;38.33;37.33;;;;;2.78;47.70;101014.81;5059681;28;45347;-78
2022/03/08 04:13:19;;;;;;;;;46.00;43.75;;;;;2.70;48.01;101013.63;5059109;28;46233;-85
2022/03/08 04:15:45;;;;;;;;;31.50;27.50;;;;;2.70;48.02;101008.44;5064306;28;45534;-85
2022/03/08 04:18:11;;;;;;;;;39.00;36.00;;;;;2.73;47.97;101015.47;5059743;28;45378;-80
2022/03/08 04:20:37;;;;;;;;;55.33;42.67;;;;;2.71;48.70;101019.72;5058526;28;45402;-79
2022/03/08 04:23:03;;;;;;;;;52.50;44.50;;;;;2.41;48.20;100965.53;5058362;28;45813;-77
2022/03/08 04:25:30;;;;;;;;;51.67;43.00;;;;;2.56;48.26;100991.31;5058455;28;45869;-77
2022/03/08 04:27:55;;;;;;;;;53.00;41.00;;;;;2.67;48.42;101010.88;5062339;28;45427;-77
2022/03/08 04:30:21;;;;;;;;;47.67;42.00;;;;;2.53;48.27;100986.88;5060994;28;45346;-78
2022/03/08 04:32:46;;;;;;;;;53.00;43.50;;;;;2.55;48.80;100993.03;5065122;28;46095;-79
2022/03/08 04:35:12;;;;;;;;;51.75;43.75;;;;;2.50;48.63;100985.84;5060451;28;45393;-81
2022/03/08 04:37:38;;;;;;;;;44.00;40.33;;;;;2.66;48.14;101006.50;5060556;28;45406;-82
2022/03/08 04:40:05;;;;;;;;;43.33;39.33;;;;;2.65;48.51;100996.91;5061100;28;45611;-78
2022/03/08 04:42:30;;;;;;;;;46.00;40.67;;;;;2.58;48.62;101000.97;5058920;28;46440;-83
2022/03/08 04:44:56;;;;;;;;;47.00;40.00;;;;;2.43;48.58;100978.63;5060892;28;45235;-80
2022/03/08 04:47:21;;;;;;;;;37.25;37.25;;;;;2.35;48.67;100969.59;5058419;28;45337;-84
2022/03/08 04:49:46;;;;;;;;;40.50;37.75;;;;;2.50;48.61;100997.13;5059957;28;45436;-84
2022/03/08 04:52:12;;;;;;;;;48.50;44.50;;;;;2.54;48.38;101000.78;5058166;28;45206;-85
2022/03/08 04:54:37;;;;;;;;;47.00;40.25;;;;;2.48;48.86;100997.91;5058903;28;45224;-85
2022/03/08 04:57:03;;;;;;;;;57.00;48.25;;;;;2.52;48.85;101000.72;5060152;28;45427;-78
2022/03/08 04:59:29;;;;;;;;;49.00;42.00;;;;;2.43;48.76;100983.81;5067885;28;45365;-78
2022/03/08 05:01:54;;;;;;;;;44.50;38.25;;;;;2.43;49.09;100992.50;5080429;28;47220;-85
2022/03/08 05:04:21;;;;;;;;;50.75;43.25;;;;;2.47;49.05;100994.41;5080829;28;45436;-84
2022/03/08 05:06:47;;;;;;;;;47.33;41.33;;;;;2.43;48.91;100989.03;5087687;28;45282;-82
2022/03/08 05:09:12;;;;;;;;;45.33;42.00;;;;;2.44;48.99;100990.78;5085011;28;44800;-83
2022/03/08 05:11:38;;;;;;;;;46.33;41.67;;;;;2.43;49.36;100989.91;5059420;28;46007;-82
2022/03/08 05:14:03;;;;;;;;;45.00;39.50;;;;;2.40;49.37;100994.06;5065852;28;45475;-80
2022/03/08 05:16:29;;;;;;;;;48.00;43.33;;;;;2.29;49.60;100972.78;5069234;28;45391;-80
2022/03/08 05:18:54;;;;;;;;;50.25;41.75;;;;;2.33;49.06;100979.00;5058627;28;45730;-83
2022/03/08 05:21:20;;;;;;;;;48.00;42.75;;;;;2.34;49.19;100988.63;5059313;28;45358;-83
2022/03/08 05:23:45;;;;;;;;;41.75;38.00;;;;;2.31;49.46;100983.25;5057781;28;45320;-86
2022/03/08 05:26:10;;;;;;;;;55.75;40.75;;;;;2.37;49.22;100994.81;5058966;28;45246;-81
2022/03/08 05:28:36;;;;;;;;;48.00;43.75;;;;;2.35;49.56;100995.59;5057518;28;45249;-82
2022/03/08 05:31:01;;;;;;;;;55.00;42.00;;;;;2.19;49.41;100958.50;5059474;28;46352;-82
2022/03/08 05:33:27;;;;;;;;;51.00;45.50;;;;;2.29;49.90;100981.47;5058273;28;45466;-84
2022/03/08 05:35:52;;;;;;;;;51.25;42.00;;;;;2.22;49.35;100973.34;5058380;28;45501;-81
2022/03/08 05:38:18;;;;;;;;;55.75;45.00;;;;;2.18;49.54;100971.44;5058246;28;45382;-86
2022/03/08 05:40:44;;;;;;;;;45.50;43.00;;;;;2.32;50.17;100990.22;5057874;28;46007;-82
2022/03/08 05:43:10;;;;;;;;;46.25;39.75;;;;;2.23;49.53;100975.13;5059321;28;45430;-82
2022/03/08 05:45:35;;;;;;;;;56.50;46.00;;;;;2.25;49.55;100983.91;5076650;28;45357;-78
2022/03/08 05:48:00;;;;;;;;;48.00;41.75;;;;;2.12;49.41;100956.44;5077885;28;45361;-80
2022/03/08 05:50:26;;;;;;;;;51.75;43.00;;;;;2.16;49.46;100976.56;5057775;28;45960;-80
2022/03/08 05:52:51;;;;;;;;;48.50;42.25;;;;;2.08;49.88;100966.66;5058802;28;45533;-81
2022/03/08 05:55:17;;;;;;;;;49.00;43.50;;;;;2.13;50.05;100983.31;5057867;28;45564;-81
2022/03/08 05:57:42;;;;;;;;;52.75;45.00;;;;;2.19;50.22;100988.81;5058154;28;45361;-84
2022/03/08 06:00:09;;;;;;;;;60.75;46.75;;;;;2.23;50.06;100993.31;5066886;28;46268;-81
2022/03/08 06:02:35;;;;;;;;;52.00;44.75;;;;;2.23;50.21;100983.84;5075868;28;45551;-79
2022/03/08 06:05:01;;;;;;;;;54.50;43.25;;;;;2.23;50.10;100982.91;5059158;28;45468;-78
2022/03/08 06:07:26;;;;;;;;;51.25;44.00;;;;;2.13;50.08;100962.53;5060378;28;45314;-78
2022/03/08 06:09:52;;;;;;;;;48.25;40.25;;;;;2.12;49.66;100966.84;5056589;28;45304;-86
2022/03/08 06:12:17;;;;;;;;;51.50;43.50;;;;;1.94;49.67;100930.53;5057293;28;45326;-79
2022/03/08 06:14:43;;;;;;;;;54.50;44.00;;;;;2.22;49.91;100975.94;5060008;28;45448;-83
2022/03/08 06:17:09;;;;;;;;;46.00;43.25;;;;;2.21;49.45;100971.56;5061395;28;45494;-82
2022/03/08 06:19:35;;;;;;;;;60.00;46.75;;;;;2.34;49.93;101005.09;5070961;28;45639;-81
2022/03/08 06:22:01;;;;;;;;;47.25;42.00;;;;;2.34;49.52;101002.50;5062030;28;45461;-86
2022/03/08 06:24:26;;;;;;;;;50.00;42.00;;;;;2.36;49.49;100999.97;5047679;28;45291;-80
2022/03/08 06:26:51;;;;;;;;;54.25;45.75;;;;;2.25;49.59;100987.38;5055855;28;45401;-87
2022/03/08 06:29:17;;;;;;;;;47.25;43.25;;;;;2.27;49.53;100987.44;5060660;28;45361;-86
2022/03/08 06:31:46;;;;;;;;;49.00;42.50;;;;;2.38;49.66;101011.31;5063726;28;45495;-76
2022/03/08 06:34:12;;;;;;;;;45.25;41.50;;;;;2.37;49.94;101012.13;5069173;28;45955;-82
2022/03/08 06:36:39;;;;;;;;;55.50;46.00;;;;;2.22;50.17;100991.53;5056334;28;45475;-74
2022/03/08 06:39:04;;;;;;;;;60.75;45.00;;;;;2.38;50.17;101017.41;5055754;28;45374;-75
2022/03/08 06:41:31;;;;;;;;;52.00;41.75;;;;;2.37;50.40;101009.53;5055602;28;45432;-75
2022/03/08 06:43:56;;;;;;;;;47.25;42.25;;;;;2.43;50.07;101007.22;5055947;28;45452;-76
2022/03/08 06:46:22;;;;;;;;;52.25;45.00;;;;;2.45;49.64;101002.97;5056228;28;45515;-76
2022/03/08 06:48:47;;;;;;;;;43.25;40.00;;;;;2.41;49.34;100994.13;5055060;28;47131;-76
2022/03/08 06:51:14;;;;;;;;;57.25;47.50;;;;;2.47;49.62;100991.81;5054282;28;45455;-76
2022/03/08 06:53:39;;;;;;;;;48.67;42.00;;;;;2.49;49.25;100995.34;5060167;28;45611;-76
2022/03/08 06:56:05;;;;;;;;;55.75;48.00;;;;;2.63;49.62;101002.88;5055708;28;45520;-76
2022/03/08 06:58:30;;;;;;;;;55.00;45.33;;;;;2.65;49.73;101009.03;5055207;28;46673;-77
2022/03/08 07:00:55;;;;;;;;;60.50;46.50;;;;;2.60;49.15;100988.00;5056099;28;45373;-79
2022/03/08 07:03:21;;;;;;;;;56.75;44.50;;;;;2.69;48.83;100995.31;5055584;28;45480;-75
2022/03/08 07:05:46;;;;;;;;;62.25;46.50;;;;;2.77;49.17;101007.84;5067498;28;45391;-78
2022/03/08 07:08:12;;;;;;;;;50.00;43.00;;;;;2.79;48.92;101000.09;5055532;28;47006;-76
2022/03/08 07:10:38;;;;;;;;;52.75;45.50;;;;;2.84;48.81;101012.50;5055700;28;45246;-82
2022/03/08 07:13:03;;;;;;;;;54.50;44.25;;;;;2.90;48.78;101005.78;5056083;28;45214;-74
2022/03/08 07:15:29;;;;;;;;;61.75;47.75;;;;;2.86;48.66;101000.44;5055614;28;45470;-74
2022/03/08 07:17:54;;;;;;;;;62.00;50.25;;;;;2.89;49.43;100998.81;5055669;28;46068;-76
2022/03/08 07:20:20;;;;;;;;;62.00;44.25;;;;;2.89;49.11;100996.22;5037726;28;45404;-77
2022/03/08 07:22:48;;;;;;;;;53.25;44.50;;;;;2.97;48.42;101011.28;5056204;28;45872;-83
2022/03/08 07:25:15;;;;;;;;;54.25;48.25;;;;;2.95;48.78;101004.25;5042171;28;45547;-73
2022/03/08 07:27:40;;;;;;;;;45.75;39.75;;;;;3.06;48.67;101016.88;5057607;28;46139;-85
2022/03/08 07:30:07;;;;;;;;;61.67;45.67;;;;;3.12;48.68;101018.88;5056279;28;45270;-74
2022/03/08 07:32:33;;;;;;;;;52.50;42.25;;;;;3.06;48.54;100998.66;5055355;28;45468;-71
2022/03/08 07:34:59;;;;;;;;;46.00;41.33;;;;;3.16;48.40;101018.16;5057511;28;45611;-75
2022/03/08 07:37:24;;;;;;;;;51.33;46.00;;;;;3.24;47.83;101027.19;5058210;28;46042;-80
2022/03/08 07:39:51;;;;;;;;;64.50;47.25;;;;;3.26;48.02;101015.13;5061568;28;44767;-73
2022/03/08 07:42:16;;;;;;;;;60.25;48.25;;;;;3.15;47.19;100993.84;5060390;28;45335;-79
2022/03/08 07:44:42;;;;;;;;;56.00;45.75;;;;;3.32;47.52;101022.28;5068084;28;45230;-79
2022/03/08 07:47:08;;;;;;;;;56.00;47.33;;;;;3.39;48.10;101025.22;5061220;28;46165;-78
2022/03/08 07:49:34;;;;;;;;;59.25;45.25;;;;;3.46;47.80;101034.16;5069223;28;45411;-72
2022/03/08 07:51:59;;;;;;;;;59.67;48.00;;;;;3.48;47.99;101049.84;5062463;28;45224;-79
2022/03/08 07:54:25;;;;;;;;;61.00;51.50;;;;;3.35;48.11;101044.16;5060917;28;45364;-80
2022/03/08 07:56:50;;;;;;;;;47.67;44.00;;;;;3.29;48.00;101033.47;5060582;28;47139;-75
2022/03/08 07:59:16;;;;;;;;;56.67;46.33;;;;;3.24;47.90;101034.97;5061808;28;45458;-81
2022/03/08 08:01:41;;;;;;;;;61.00;48.50;;;;;3.17;47.69;101014.75;5066964;28;45295;-76
2022/03/08 08:04:07;;;;;;;;;63.00;47.33;;;;;3.33;47.46;101035.38;5064973;28;45133;-76
2022/03/08 08:06:32;;;;;;;;;69.00;48.25;;;;;3.37;47.81;101031.19;5050133;28;47657;-77
2022/03/08 08:08:58;;;;;;;;;62.67;47.33;;;;;3.38;47.51;101040.78;5061792;28;45151;-77
2022/03/08 08:11:24;;;;;;;;;63.00;51.00;;;;;3.40;47.35;101042.59;5059614;28;45358;-79
2022/03/08 08:13:50;;;;;;;;;64.25;49.00;;;;;3.25;48.21;101022.84;5058884;28;45562;-78
2022/03/08 08:16:17;;;;;;;;;52.25;41.75;;;;;3.46;47.86;101038.50;5059676;28;46081;-77
2022/03/08 08:18:42;;;;;;;;;62.25;48.75;;;;;3.55;47.97;101025.84;5059622;28;45424;-74
2022/03/08 08:21:08;;;;;;;;;61.00;48.25;;;;;3.68;47.11;101031.59;5041917;28;45284;-76
2022/03/08 08:23:33;;;;;;;;;68.00;50.00;;;;;3.84;46.99;101040.91;5060520;28;45433;-75
2022/03/08 08:25:59;;;;;;;;;47.33;41.00;;;;;3.95;47.05;101031.78;5063760;28;46046;-75
2022/03/08 08:28:24;;;;;;;;;56.00;47.25;;;;;4.07;46.33;101033.97;5060933;28;45427;-75
2022/03/08 08:30:49;;;;;;;;;51.00;45.00;;;;;4.14;46.13;101038.59;5060210;28;45872;-79
2022/03/08 08:33:15;;;;;;;;;57.67;44.00;;;;;4.15;46.13;101036.88;5060022;28;45390;-80
2022/03/08 08:35:41;;;;;;;;;63.00;49.33;;;;;4.20;45.69;101041.44;5059666;28;45464;-80
2022/03/08 08:38:07;;;;;;;;;50.33;44.67;;;;;4.31;46.03;101046.16;5059438;28;45640;-79
2022/03/08 08:40:34;;;;;;;;;60.33;45.33;;;;;4.36;45.88;101042.00;5059261;28;45351;-79
2022/03/08 08:43:00;;;;;;;;;56.00;45.00;;;;;4.41;46.01;101035.25;5058588;28;45317;-77
2022/03/08 08:45:25;;;;;;;;;66.33;51.67;;;;;4.61;45.71;101043.78;5059664;28;46380;-80
2022/03/08 08:47:51;;;;;;;;;58.33;43.33;;;;;4.68;44.64;101066.66;5058500;28;45341;-83
2022/03/08 08:50:17;;;;;;;;;60.33;48.67;;;;;4.55;45.60;101054.88;5060541;28;45417;-85
2022/03/08 08:52:43;;;;;;;;;61.67;47.00;;;;;4.64;45.62;101057.81;5060119;28;45358;-83
2022/03/08 08:55:09;;;;;;;;;66.00;51.33;;;;;4.66;45.21;101023.97;5059721;28;46596;-79
2022/03/08 08:57:34;;;;;;;;;65.33;51.67;;;;;4.78;45.26;101024.41;5059656;28;45409;-80
2022/03/08 09:00:00;;;;;;;;;57.33;47.00;;;;;5.04;44.83;101054.03;5062884;28;45218;-75
2022/03/08 09:02:25;;;;;;;;;59.33;48.33;;;;;5.15;44.79;101050.06;5062016;28;45373;-79
2022/03/08 09:04:50;;;;;;;;;58.33;48.00;;;;;5.31;44.23;101041.03;5060434;28;45552;-75
2022/03/08 09:07:16;;;;;;;;;66.33;51.00;;;;;5.55;43.70;101030.50;5059320;28;45378;-77
2022/03/08 09:09:41;;;;;;;;;56.00;44.33;;;;;8.39;40.05;101046.03;5059202;28;45357;-75
2022/03/08 09:12:07;;;;;;;;;61.67;46.00;;;;;13.38;32.69;101030.50;5059460;28;45422;-78
2022/03/08 09:14:33;;;;;;;;;56.67;47.67;;;;;16.71;26.95;101020.53;5058627;28;46330;-81
2022/03/08 09:16:59;;;;;;;;;61.33;47.33;;;;;17.55;25.40;101017.50;5041184;28;45320;-79
2022/03/08 09:19:24;;;;;;;;;54.33;45.00;;;;;16.02;26.66;101018.69;5060153;28;45231;-81
2022/03/08 09:21:50;;;;;;;;;59.50;49.00;;;;;15.01;27.52;101010.66;5060391;28;45462;-81
2022/03/08 09:24:15;;;;;;;;;56.50;46.75;;;;;14.41;28.74;101008.25;5059743;28;45393;-76
2022/03/08 09:26:41;;;;;;;;;59.50;46.00;;;;;14.12;29.31;100999.53;5059167;28;45466;-81
2022/03/08 09:29:06;;;;;;;;;57.00;45.00;;;;;14.20;28.10;101017.16;5058622;28;45371;-75
2022/03/08 09:31:32;;;;;;;;;52.00;42.75;;;;;17.40;25.23;101023.06;5060893;28;45487;-84
2022/03/08 09:33:57;;;;;;;;;53.25;43.50;;;;;18.37;24.04;100984.91;5060055;28;46542;-76
2022/03/08 09:36:23;;;;;;;;;53.25;43.75;;;;;20.93;20.88;100993.44;5064889;28;45341;-77
2022/03/08 09:38:48;;;;;;;;;57.00;45.25;;;;;22.37;18.96;100989.47;5059588;28;45445;-81
2022/03/08 09:41:14;;;;;;;;;53.00;41.50;;;;;23.64;18.23;101004.16;5059584;28;45405;-78
2022/03/08 09:43:40;;;;;;;;;52.50;42.25;;;;;23.12;19.36;101000.00;5060049;28;47008;-78
2022/03/08 09:46:07;;;;;;;;;56.00;45.75;;;;;23.80;17.80;100996.28;5059467;28;45180;-76
2022/03/08 09:48:33;;;;;;;;;51.75;42.25;;;;;24.22;16.69;100979.19;5059186;28;45249;-76
2022/03/08 09:51:00;;;;;;;;;48.25;41.25;;;;;24.01;17.52;100984.59;5059477;28;45341;-80
2022/03/08 09:53:29;;;;;;;;;49.75;41.25;;;;;25.47;16.58;100992.97;5058592;28;45684;-80
2022/03/08 09:55:59;;;;;;;;;50.75;40.50;;;;;27.90;15.48;100974.09;5058444;28;45405;-77
2022/03/08 09:58:25;;;;;;;;;49.75;40.75;;;;;29.71;13.94;100983.19;5059388;28;45427;-80
2022/03/08 10:00:59;;;;;;;;;56.75;46.50;;;;;31.12;12.87;100957.66;5059204;28;45476;-79
2022/03/08 10:03:39;;;;;;;;;52.00;43.33;;;;;32.21;11.80;100976.56;5059122;28;46240;-79
2022/03/08 10:06:06;;;;;;;;;53.33;43.33;;;;;31.51;11.88;100982.00;5058747;28;45446;-83
2022/03/08 10:08:32;;;;;;;;;58.67;44.00;;;;;31.38;11.80;100969.34;5058317;28;45337;-82
2022/03/08 10:11:03;;;;;;;;;52.67;42.33;;;;;32.56;11.74;100979.19;5059753;28;45465;-75
2022/03/08 10:13:38;;;;;;;;;51.67;42.33;;;;;33.01;11.33;100971.84;5061764;28;46253;-75
2022/03/08 10:16:15;;;;;;;;;49.33;41.33;;;;;33.26;11.73;100972.53;5057877;28;45327;-76
2022/03/08 10:18:45;;;;;;;;;51.33;40.67;;;;;33.53;11.52;100964.75;5058364;28;45311;-78
2022/03/08 10:21:31;;;;;;;;;45.33;37.67;;;;;33.81;10.64;100967.84;5058597;28;45331;-75
2022/03/08 10:23:59;;;;;;;;;47.33;40.00;;;;;33.50;11.21;100964.13;5057854;28;46030;-81
2022/03/08 10:26:25;;;;;;;;;55.33;44.67;;;;;34.08;10.63;100961.88;5057722;28;45369;-82
2022/03/08 10:28:53;;;;;;;;;45.33;39.67;;;;;34.65;11.78;100964.03;5057924;28;45221;-80
2022/03/08 10:31:20;;;;;;;;;55.00;43.67;;;;;34.01;10.90;100961.53;5056517;28;45547;-79
2022/03/08 10:33:48;;;;;;;;;50.00;42.00;;;;;34.09;10.09;100944.47;5057563;28;46234;-81
2022/03/08 10:36:22;;;;;;;;;50.00;39.33;;;;;35.19;10.05;100959.16;5057734;28;45373;-80
2022/03/08 10:39:05;;;;;;;;;47.00;39.67;;;;;35.82;10.14;100954.13;5058309;28;45324;-81
2022/03/08 10:41:31;;;;;;;;;45.67;39.00;;;;;36.18;9.34;100949.75;5057982;28;45389;-76
2022/03/08 10:43:57;;;;;;;;;49.50;41.25;;;;;36.66;9.88;100957.78;5057463;28;46587;-79
2022/03/08 10:46:24;;;;;;;;;48.25;39.00;;;;;36.62;9.80;100952.78;5059428;28;45297;-75
2022/03/08 10:48:52;;;;;;;;;54.25;43.50;;;;;36.87;9.16;100959.47;5066143;28;45328;-76
2022/03/08 10:51:17;;;;;;;;;40.75;37.00;;;;;36.52;10.16;100959.19;5060818;28;45228;-85
2022/03/08 10:53:44;;;;;;;;;44.75;38.75;;;;;36.24;9.36;100943.66;5060545;28;45640;-88
2022/03/08 10:56:11;;;;;;;;;48.75;40.50;;;;;35.77;9.64;100923.56;5061082;28;45527;-88
2022/03/08 10:58:53;;;;;;;;;58.00;46.00;;;;;36.06;9.35;100931.75;5061607;28;45321;-88
2022/03/08 11:01:19;;;;;;;;;49.00;40.75;;;;;36.16;9.52;100930.69;5061986;28;45316;-88
2022/03/08 11:03:58;;;;;;;;;51.50;42.25;;;;;35.65;9.76;100942.91;5059649;28;46599;-86
2022/03/08 11:06:25;;;;;;;;;44.50;38.25;;;;;35.45;9.86;100941.16;5059024;28;45547;-88
2022/03/08 11:08:52;;;;;;;;;47.75;40.75;;;;;35.61;9.71;100932.38;5059179;28;45235;-86
2022/03/08 11:11:20;;;;;;;;;49.50;39.75;;;;;34.33;10.16;100930.47;5061017;28;45545;-89
2022/03/08 11:13:50;;;;;;;;;49.00;41.25;;;;;33.17;10.61;100922.28;5058356;28;46139;-85